sensor_id;sensor_type;location;lat;lon;timestamp;P1;durP1;ratioP1;P2;durP2;ratioP2
69197;SDS011;56311;50.298;8.514;2023-02-28T00:00:18;6.70;;;3.08;;
69197;SDS011;56311;50.298;8.514;2023-02-28T00:02:45;5.82;;;3.20;;
69197;SDS011;56311;50.298;8.514;2023-02-28T00:05:13;7.10;;;3.67;;
69197;SDS011;56311;50.298;8.514;2023-02-28T00:07:41;6.07;;;3.38;;
69197;SDS011;56311;50.298;8.514;2023-02-28T00:10:09;6.85;;;3.10;;
69197;SDS011;56311;50.298;8.514;2023-02-28T00:12:36;6.22;;;3.50;;
69197;SDS011;56311;50.298;8.514;2023-02-28T00:15:05;10.93;;;4.05;;
69197;SDS011;56311;50.298;8.514;2023-02-28T00:17:31;6.40;;;3.60;;
69197;SDS011;56311;50.298;8.514;2023-02-28T00:19:58;5.90;;;3.22;;
69197;SDS011;56311;50.298;8.514;2023-02-28T00:22:38;6.40;;;3.20;;
69197;SDS011;56311;50.298;8.514;2023-02-28T00:25:06;6.55;;;3.45;;
69197;SDS011;56311;50.298;8.514;2023-02-28T00:27:33;5.95;;;3.38;;
69197;SDS011;56311;50.298;8.514;2023-02-28T00:30:00;6.63;;;3.65;;
69197;SDS011;56311;50.298;8.514;2023-02-28T00:32:27;7.05;;;3.70;;
69197;SDS011;56311;50.298;8.514;2023-02-28T00:34:53;7.32;;;3.67;;
69197;SDS011;56311;50.298;8.514;2023-02-28T00:37:20;8.15;;;4.22;;
69197;SDS011;56311;50.298;8.514;2023-02-28T00:39:46;6.93;;;3.53;;
69197;SDS011;56311;50.298;8.514;2023-02-28T00:42:14;6.32;;;3.80;;
69197;SDS011;56311;50.298;8.514;2023-02-28T00:44:41;7.57;;;3.75;;
69197;SDS011;56311;50.298;8.514;2023-02-28T00:47:07;7.38;;;3.50;;
69197;SDS011;56311;50.298;8.514;2023-02-28T00:49:34;6.50;;;3.53;;
69197;SDS011;56311;50.298;8.514;2023-02-28T00:52:00;7.47;;;4.00;;
69197;SDS011;56311;50.298;8.514;2023-02-28T00:54:27;8.63;;;4.20;;
69197;SDS011;56311;50.298;8.514;2023-02-28T00:56:53;7.03;;;3.85;;
69197;SDS011;56311;50.298;8.514;2023-02-28T00:59:21;9.43;;;4.50;;
69197;SDS011;56311;50.298;8.514;2023-02-28T01:01:48;6.97;;;3.53;;
69197;SDS011;56311;50.298;8.514;2023-02-28T01:04:14;7.57;;;3.70;;
69197;SDS011;56311;50.298;8.514;2023-02-28T01:06:41;6.53;;;4.07;;
69197;SDS011;56311;50.298;8.514;2023-02-28T01:09:08;6.22;;;3.35;;
69197;SDS011;56311;50.298;8.514;2023-02-28T01:11:35;7.88;;;3.95;;
69197;SDS011;56311;50.298;8.514;2023-02-28T01:14:02;8.05;;;4.07;;
69197;SDS011;56311;50.298;8.514;2023-02-28T01:16:30;6.47;;;3.83;;
69197;SDS011;56311;50.298;8.514;2023-02-28T01:18:57;7.80;;;4.47;;
69197;SDS011;56311;50.298;8.514;2023-02-28T01:21:23;8.07;;;4.25;;
69197;SDS011;56311;50.298;8.514;2023-02-28T01:23:50;10.15;;;4.70;;
69197;SDS011;56311;50.298;8.514;2023-02-28T01:26:18;5.95;;;3.72;;
69197;SDS011;56311;50.298;8.514;2023-02-28T01:28:44;6.30;;;4.28;;
69197;SDS011;56311;50.298;8.514;2023-02-28T01:31:12;8.32;;;4.47;;
69197;SDS011;56311;50.298;8.514;2023-02-28T01:33:40;7.28;;;4.25;;
69197;SDS011;56311;50.298;8.514;2023-02-28T01:36:07;6.85;;;4.07;;
69197;SDS011;56311;50.298;8.514;2023-02-28T01:38:35;7.40;;;4.38;;
69197;SDS011;56311;50.298;8.514;2023-02-28T01:41:01;7.53;;;3.85;;
69197;SDS011;56311;50.298;8.514;2023-02-28T01:43:29;6.55;;;4.03;;
69197;SDS011;56311;50.298;8.514;2023-02-28T01:45:56;9.23;;;4.20;;
69197;SDS011;56311;50.298;8.514;2023-02-28T01:48:24;7.93;;;4.43;;
69197;SDS011;56311;50.298;8.514;2023-02-28T01:50:53;8.32;;;4.60;;
69197;SDS011;56311;50.298;8.514;2023-02-28T01:53:21;9.77;;;4.40;;
69197;SDS011;56311;50.298;8.514;2023-02-28T01:55:50;9.63;;;4.88;;
69197;SDS011;56311;50.298;8.514;2023-02-28T01:58:18;8.15;;;4.15;;
69197;SDS011;56311;50.298;8.514;2023-02-28T02:00:44;8.20;;;4.70;;
69197;SDS011;56311;50.298;8.514;2023-02-28T02:03:12;9.05;;;4.78;;
69197;SDS011;56311;50.298;8.514;2023-02-28T02:05:42;10.10;;;5.20;;
69197;SDS011;56311;50.298;8.514;2023-02-28T02:08:15;7.85;;;4.88;;
69197;SDS011;56311;50.298;8.514;2023-02-28T02:10:46;8.43;;;4.90;;
69197;SDS011;56311;50.298;8.514;2023-02-28T02:13:24;6.78;;;4.63;;
69197;SDS011;56311;50.298;8.514;2023-02-28T02:15:54;8.45;;;4.90;;
69197;SDS011;56311;50.298;8.514;2023-02-28T02:18:26;10.05;;;4.93;;
69197;SDS011;56311;50.298;8.514;2023-02-28T02:21:07;10.00;;;5.20;;
69197;SDS011;56311;50.298;8.514;2023-02-28T02:29:22;8.63;;;5.40;;
69197;SDS011;56311;50.298;8.514;2023-02-28T02:32:02;8.27;;;4.95;;
69197;SDS011;56311;50.298;8.514;2023-02-28T02:34:39;9.32;;;5.25;;
69197;SDS011;56311;50.298;8.514;2023-02-28T02:37:09;9.15;;;5.25;;
69197;SDS011;56311;50.298;8.514;2023-02-28T02:39:40;8.55;;;5.32;;
69197;SDS011;56311;50.298;8.514;2023-02-28T02:42:12;9.70;;;5.40;;
69197;SDS011;56311;50.298;8.514;2023-02-28T02:44:41;8.25;;;4.93;;
69197;SDS011;56311;50.298;8.514;2023-02-28T02:47:12;8.00;;;4.97;;
69197;SDS011;56311;50.298;8.514;2023-02-28T02:49:40;7.35;;;4.90;;
69197;SDS011;56311;50.298;8.514;2023-02-28T02:52:09;8.80;;;5.13;;
69197;SDS011;56311;50.298;8.514;2023-02-28T02:54:38;8.40;;;5.35;;
69197;SDS011;56311;50.298;8.514;2023-02-28T02:57:07;8.35;;;5.13;;
69197;SDS011;56311;50.298;8.514;2023-02-28T02:59:35;10.15;;;4.90;;
69197;SDS011;56311;50.298;8.514;2023-02-28T03:02:02;7.93;;;5.07;;
69197;SDS011;56311;50.298;8.514;2023-02-28T03:04:30;9.75;;;5.35;;
69197;SDS011;56311;50.298;8.514;2023-02-28T03:06:59;10.30;;;5.78;;
69197;SDS011;56311;50.298;8.514;2023-02-28T03:09:26;9.82;;;4.85;;
69197;SDS011;56311;50.298;8.514;2023-02-28T03:11:53;9.10;;;5.00;;
69197;SDS011;56311;50.298;8.514;2023-02-28T03:14:24;10.13;;;5.80;;
69197;SDS011;56311;50.298;8.514;2023-02-28T03:19:40;7.78;;;4.80;;
69197;SDS011;56311;50.298;8.514;2023-02-28T03:24:40;8.95;;;5.03;;
69197;SDS011;56311;50.298;8.514;2023-02-28T03:27:10;9.05;;;5.00;;
69197;SDS011;56311;50.298;8.514;2023-02-28T03:29:39;8.57;;;4.90;;
69197;SDS011;56311;50.298;8.514;2023-02-28T03:32:08;10.57;;;5.50;;
69197;SDS011;56311;50.298;8.514;2023-02-28T03:37:09;12.20;;;5.32;;
69197;SDS011;56311;50.298;8.514;2023-02-28T03:39:37;8.52;;;5.07;;
69197;SDS011;56311;50.298;8.514;2023-02-28T03:42:06;7.30;;;4.68;;
69197;SDS011;56311;50.298;8.514;2023-02-28T03:44:35;8.38;;;4.65;;
69197;SDS011;56311;50.298;8.514;2023-02-28T03:47:04;8.27;;;5.22;;
69197;SDS011;56311;50.298;8.514;2023-02-28T03:49:34;8.40;;;5.20;;
69197;SDS011;56311;50.298;8.514;2023-02-28T03:52:02;9.23;;;5.60;;
69197;SDS011;56311;50.298;8.514;2023-02-28T03:54:30;8.52;;;4.53;;
69197;SDS011;56311;50.298;8.514;2023-02-28T03:56:59;8.73;;;5.15;;
69197;SDS011;56311;50.298;8.514;2023-02-28T03:59:32;9.10;;;4.82;;
69197;SDS011;56311;50.298;8.514;2023-02-28T04:02:00;9.25;;;5.13;;
69197;SDS011;56311;50.298;8.514;2023-02-28T04:04:27;8.13;;;4.70;;
69197;SDS011;56311;50.298;8.514;2023-02-28T04:07:00;7.30;;;4.55;;
69197;SDS011;56311;50.298;8.514;2023-02-28T04:09:28;9.45;;;5.20;;
69197;SDS011;56311;50.298;8.514;2023-02-28T04:11:54;7.53;;;4.65;;
69197;SDS011;56311;50.298;8.514;2023-02-28T04:14:22;8.95;;;4.88;;
69197;SDS011;56311;50.298;8.514;2023-02-28T04:16:50;9.93;;;5.40;;
69197;SDS011;56311;50.298;8.514;2023-02-28T04:19:17;8.23;;;5.25;;
69197;SDS011;56311;50.298;8.514;2023-02-28T04:21:44;11.65;;;5.03;;
69197;SDS011;56311;50.298;8.514;2023-02-28T04:24:12;6.85;;;4.60;;
69197;SDS011;56311;50.298;8.514;2023-02-28T04:26:41;8.82;;;5.28;;
69197;SDS011;56311;50.298;8.514;2023-02-28T04:29:11;8.52;;;4.80;;
69197;SDS011;56311;50.298;8.514;2023-02-28T04:31:38;7.93;;;4.75;;
69197;SDS011;56311;50.298;8.514;2023-02-28T04:34:06;8.38;;;5.40;;
69197;SDS011;56311;50.298;8.514;2023-02-28T04:36:32;8.20;;;4.47;;
69197;SDS011;56311;50.298;8.514;2023-02-28T04:38:59;8.43;;;5.10;;
69197;SDS011;56311;50.298;8.514;2023-02-28T04:41:26;26.08;;;9.52;;
69197;SDS011;56311;50.298;8.514;2023-02-28T04:43:56;23.08;;;8.65;;
69197;SDS011;56311;50.298;8.514;2023-02-28T04:46:22;13.65;;;6.50;;
69197;SDS011;56311;50.298;8.514;2023-02-28T04:48:49;12.00;;;6.05;;
69197;SDS011;56311;50.298;8.514;2023-02-28T04:51:18;12.27;;;6.68;;
69197;SDS011;56311;50.298;8.514;2023-02-28T04:53:45;14.25;;;6.38;;
69197;SDS011;56311;50.298;8.514;2023-02-28T04:56:13;22.10;;;7.97;;
69197;SDS011;56311;50.298;8.514;2023-02-28T04:58:39;14.13;;;7.13;;
69197;SDS011;56311;50.298;8.514;2023-02-28T05:01:16;13.93;;;6.30;;
69197;SDS011;56311;50.298;8.514;2023-02-28T05:03:43;11.43;;;6.32;;
69197;SDS011;56311;50.298;8.514;2023-02-28T05:06:10;9.93;;;5.25;;
69197;SDS011;56311;50.298;8.514;2023-02-28T05:08:38;11.45;;;6.25;;
69197;SDS011;56311;50.298;8.514;2023-02-28T05:11:05;10.82;;;5.80;;
69197;SDS011;56311;50.298;8.514;2023-02-28T05:13:33;11.15;;;5.85;;
69197;SDS011;56311;50.298;8.514;2023-02-28T05:15:59;27.65;;;9.27;;
69197;SDS011;56311;50.298;8.514;2023-02-28T05:18:26;50.85;;;14.23;;
69197;SDS011;56311;50.298;8.514;2023-02-28T05:20:52;49.25;;;13.90;;
69197;SDS011;56311;50.298;8.514;2023-02-28T05:23:19;13.30;;;7.13;;
69197;SDS011;56311;50.298;8.514;2023-02-28T05:25:48;49.65;;;14.43;;
69197;SDS011;56311;50.298;8.514;2023-02-28T05:28:14;71.18;;;20.20;;
69197;SDS011;56311;50.298;8.514;2023-02-28T05:30:41;24.05;;;9.48;;
69197;SDS011;56311;50.298;8.514;2023-02-28T05:33:10;42.42;;;13.48;;
69197;SDS011;56311;50.298;8.514;2023-02-28T05:35:37;28.58;;;10.32;;
69197;SDS011;56311;50.298;8.514;2023-02-28T05:38:04;32.17;;;10.63;;
69197;SDS011;56311;50.298;8.514;2023-02-28T05:40:30;25.30;;;9.55;;
69197;SDS011;56311;50.298;8.514;2023-02-28T05:42:58;21.67;;;8.85;;
69197;SDS011;56311;50.298;8.514;2023-02-28T05:45:25;24.80;;;9.38;;
69197;SDS011;56311;50.298;8.514;2023-02-28T05:47:52;13.85;;;7.28;;
69197;SDS011;56311;50.298;8.514;2023-02-28T05:50:19;21.15;;;8.18;;
69197;SDS011;56311;50.298;8.514;2023-02-28T05:52:48;18.00;;;8.00;;
69197;SDS011;56311;50.298;8.514;2023-02-28T05:55:15;11.20;;;5.90;;
69197;SDS011;56311;50.298;8.514;2023-02-28T05:57:41;23.60;;;8.25;;
69197;SDS011;56311;50.298;8.514;2023-02-28T06:00:11;19.48;;;7.60;;
69197;SDS011;56311;50.298;8.514;2023-02-28T06:02:38;13.43;;;6.70;;
69197;SDS011;56311;50.298;8.514;2023-02-28T06:05:05;12.35;;;5.72;;
69197;SDS011;56311;50.298;8.514;2023-02-28T06:07:32;12.50;;;6.93;;
69197;SDS011;56311;50.298;8.514;2023-02-28T06:09:58;12.05;;;6.07;;
69197;SDS011;56311;50.298;8.514;2023-02-28T06:12:25;9.55;;;5.50;;
69197;SDS011;56311;50.298;8.514;2023-02-28T06:14:51;9.63;;;5.32;;
69197;SDS011;56311;50.298;8.514;2023-02-28T06:17:19;9.15;;;5.28;;
69197;SDS011;56311;50.298;8.514;2023-02-28T06:19:46;11.38;;;5.18;;
69197;SDS011;56311;50.298;8.514;2023-02-28T06:22:14;10.02;;;5.63;;
69197;SDS011;56311;50.298;8.514;2023-02-28T06:24:40;10.05;;;5.60;;
69197;SDS011;56311;50.298;8.514;2023-02-28T06:27:07;10.43;;;5.82;;
69197;SDS011;56311;50.298;8.514;2023-02-28T06:29:34;9.82;;;5.40;;
69197;SDS011;56311;50.298;8.514;2023-02-28T06:32:01;7.88;;;4.97;;
69197;SDS011;56311;50.298;8.514;2023-02-28T06:34:30;11.48;;;5.57;;
69197;SDS011;56311;50.298;8.514;2023-02-28T06:36:57;10.32;;;6.00;;
69197;SDS011;56311;50.298;8.514;2023-02-28T06:39:28;9.88;;;5.78;;
69197;SDS011;56311;50.298;8.514;2023-02-28T06:41:55;11.23;;;6.43;;
69197;SDS011;56311;50.298;8.514;2023-02-28T06:44:22;10.25;;;5.15;;
69197;SDS011;56311;50.298;8.514;2023-02-28T06:46:49;10.95;;;5.78;;
69197;SDS011;56311;50.298;8.514;2023-02-28T06:49:15;10.73;;;5.57;;
69197;SDS011;56311;50.298;8.514;2023-02-28T06:51:44;10.10;;;5.53;;
69197;SDS011;56311;50.298;8.514;2023-02-28T06:54:13;9.80;;;5.40;;
69197;SDS011;56311;50.298;8.514;2023-02-28T06:56:39;11.07;;;5.45;;
69197;SDS011;56311;50.298;8.514;2023-02-28T06:59:06;12.45;;;5.30;;
69197;SDS011;56311;50.298;8.514;2023-02-28T07:01:33;11.32;;;5.03;;
69197;SDS011;56311;50.298;8.514;2023-02-28T07:04:00;12.60;;;5.40;;
69197;SDS011;56311;50.298;8.514;2023-02-28T07:06:27;8.57;;;4.95;;
69197;SDS011;56311;50.298;8.514;2023-02-28T07:08:55;9.85;;;4.53;;
69197;SDS011;56311;50.298;8.514;2023-02-28T07:11:22;8.18;;;4.35;;
69197;SDS011;56311;50.298;8.514;2023-02-28T07:13:49;7.05;;;3.85;;
69197;SDS011;56311;50.298;8.514;2023-02-28T07:16:15;8.52;;;4.78;;
69197;SDS011;56311;50.298;8.514;2023-02-28T07:18:42;7.05;;;4.32;;
69197;SDS011;56311;50.298;8.514;2023-02-28T07:21:09;6.82;;;4.25;;
69197;SDS011;56311;50.298;8.514;2023-02-28T07:23:36;8.75;;;4.55;;
69197;SDS011;56311;50.298;8.514;2023-02-28T07:26:06;8.07;;;4.28;;
69197;SDS011;56311;50.298;8.514;2023-02-28T07:28:32;8.93;;;4.28;;
69197;SDS011;56311;50.298;8.514;2023-02-28T07:31:02;8.77;;;4.25;;
69197;SDS011;56311;50.298;8.514;2023-02-28T07:33:29;8.27;;;4.30;;
69197;SDS011;56311;50.298;8.514;2023-02-28T07:35:59;10.93;;;4.43;;
69197;SDS011;56311;50.298;8.514;2023-02-28T07:38:26;6.55;;;3.90;;
69197;SDS011;56311;50.298;8.514;2023-02-28T07:40:53;8.50;;;4.38;;
69197;SDS011;56311;50.298;8.514;2023-02-28T07:43:20;7.88;;;4.38;;
69197;SDS011;56311;50.298;8.514;2023-02-28T07:45:47;9.52;;;4.40;;
69197;SDS011;56311;50.298;8.514;2023-02-28T07:48:14;7.43;;;4.30;;
69197;SDS011;56311;50.298;8.514;2023-02-28T07:50:40;8.45;;;3.90;;
69197;SDS011;56311;50.298;8.514;2023-02-28T07:53:07;10.15;;;4.18;;
69197;SDS011;56311;50.298;8.514;2023-02-28T07:55:33;7.25;;;3.90;;
69197;SDS011;56311;50.298;8.514;2023-02-28T07:58:00;11.77;;;4.78;;
69197;SDS011;56311;50.298;8.514;2023-02-28T08:00:28;7.45;;;3.90;;
69197;SDS011;56311;50.298;8.514;2023-02-28T08:02:55;7.45;;;4.30;;
69197;SDS011;56311;50.298;8.514;2023-02-28T08:05:21;6.68;;;4.00;;
69197;SDS011;56311;50.298;8.514;2023-02-28T08:07:48;7.18;;;3.80;;
69197;SDS011;56311;50.298;8.514;2023-02-28T08:10:15;9.80;;;4.05;;
69197;SDS011;56311;50.298;8.514;2023-02-28T08:12:42;8.63;;;4.22;;
69197;SDS011;56311;50.298;8.514;2023-02-28T08:15:09;7.72;;;3.90;;
69197;SDS011;56311;50.298;8.514;2023-02-28T08:17:37;9.10;;;4.57;;
69197;SDS011;56311;50.298;8.514;2023-02-28T08:20:03;7.07;;;3.80;;
69197;SDS011;56311;50.298;8.514;2023-02-28T08:22:30;7.10;;;4.20;;
69197;SDS011;56311;50.298;8.514;2023-02-28T08:24:57;7.82;;;4.05;;
69197;SDS011;56311;50.298;8.514;2023-02-28T08:27:23;7.90;;;3.80;;
69197;SDS011;56311;50.298;8.514;2023-02-28T08:29:50;6.57;;;3.92;;
69197;SDS011;56311;50.298;8.514;2023-02-28T08:32:16;8.90;;;4.40;;
69197;SDS011;56311;50.298;8.514;2023-02-28T08:34:56;7.88;;;3.55;;
69197;SDS011;56311;50.298;8.514;2023-02-28T08:37:23;7.38;;;4.03;;
69197;SDS011;56311;50.298;8.514;2023-02-28T08:39:49;7.55;;;4.05;;
69197;SDS011;56311;50.298;8.514;2023-02-28T08:42:17;7.28;;;3.85;;
69197;SDS011;56311;50.298;8.514;2023-02-28T08:44:44;6.85;;;3.67;;
69197;SDS011;56311;50.298;8.514;2023-02-28T08:47:11;7.80;;;3.72;;
69197;SDS011;56311;50.298;8.514;2023-02-28T08:49:37;6.10;;;3.63;;
69197;SDS011;56311;50.298;8.514;2023-02-28T08:52:05;8.48;;;4.10;;
69197;SDS011;56311;50.298;8.514;2023-02-28T08:54:32;8.90;;;3.72;;
69197;SDS011;56311;50.298;8.514;2023-02-28T08:57:00;7.85;;;3.20;;
69197;SDS011;56311;50.298;8.514;2023-02-28T08:59:26;5.85;;;3.17;;
69197;SDS011;56311;50.298;8.514;2023-02-28T09:01:53;6.38;;;3.15;;
69197;SDS011;56311;50.298;8.514;2023-02-28T09:04:19;6.90;;;3.35;;
69197;SDS011;56311;50.298;8.514;2023-02-28T09:06:47;8.98;;;3.42;;
69197;SDS011;56311;50.298;8.514;2023-02-28T09:09:16;5.75;;;3.08;;
69197;SDS011;56311;50.298;8.514;2023-02-28T09:11:45;6.40;;;3.33;;
69197;SDS011;56311;50.298;8.514;2023-02-28T09:14:11;6.30;;;3.55;;
69197;SDS011;56311;50.298;8.514;2023-02-28T09:16:38;7.00;;;3.55;;
69197;SDS011;56311;50.298;8.514;2023-02-28T09:19:04;6.15;;;3.42;;
69197;SDS011;56311;50.298;8.514;2023-02-28T09:21:31;7.70;;;3.13;;
69197;SDS011;56311;50.298;8.514;2023-02-28T09:23:58;7.28;;;3.33;;
69197;SDS011;56311;50.298;8.514;2023-02-28T09:26:26;7.85;;;3.70;;
69197;SDS011;56311;50.298;8.514;2023-02-28T09:29:04;6.07;;;3.13;;
69197;SDS011;56311;50.298;8.514;2023-02-28T09:31:31;6.70;;;3.30;;
69197;SDS011;56311;50.298;8.514;2023-02-28T09:33:57;7.40;;;3.38;;
69197;SDS011;56311;50.298;8.514;2023-02-28T09:36:25;5.63;;;3.08;;
69197;SDS011;56311;50.298;8.514;2023-02-28T09:41:38;6.72;;;3.13;;
69197;SDS011;56311;50.298;8.514;2023-02-28T09:44:15;6.88;;;3.25;;
69197;SDS011;56311;50.298;8.514;2023-02-28T09:46:45;6.47;;;2.85;;
69197;SDS011;56311;50.298;8.514;2023-02-28T09:49:14;6.00;;;3.30;;
69197;SDS011;56311;50.298;8.514;2023-02-28T09:51:44;6.70;;;3.83;;
69197;SDS011;56311;50.298;8.514;2023-02-28T09:54:13;7.85;;;3.60;;
69197;SDS011;56311;50.298;8.514;2023-02-28T09:56:47;7.75;;;3.20;;
69197;SDS011;56311;50.298;8.514;2023-02-28T09:59:18;6.10;;;3.50;;
69197;SDS011;56311;50.298;8.514;2023-02-28T10:01:52;6.40;;;3.53;;
69197;SDS011;56311;50.298;8.514;2023-02-28T10:04:25;6.13;;;3.25;;
69197;SDS011;56311;50.298;8.514;2023-02-28T10:06:57;7.90;;;3.00;;
69197;SDS011;56311;50.298;8.514;2023-02-28T10:09:24;5.43;;;3.17;;
69197;SDS011;56311;50.298;8.514;2023-02-28T10:11:53;7.60;;;3.67;;
69197;SDS011;56311;50.298;8.514;2023-02-28T10:14:24;6.28;;;3.83;;
69197;SDS011;56311;50.298;8.514;2023-02-28T10:16:53;7.97;;;3.80;;
69197;SDS011;56311;50.298;8.514;2023-02-28T10:19:22;10.50;;;3.65;;
69197;SDS011;56311;50.298;8.514;2023-02-28T10:21:52;6.80;;;3.65;;
69197;SDS011;56311;50.298;8.514;2023-02-28T10:24:23;6.60;;;3.80;;
69197;SDS011;56311;50.298;8.514;2023-02-28T10:26:50;8.50;;;5.00;;
69197;SDS011;56311;50.298;8.514;2023-02-28T10:29:20;8.02;;;4.28;;
69197;SDS011;56311;50.298;8.514;2023-02-28T10:31:46;7.95;;;3.85;;
69197;SDS011;56311;50.298;8.514;2023-02-28T10:34:13;7.20;;;4.10;;
69197;SDS011;56311;50.298;8.514;2023-02-28T10:36:42;6.93;;;3.90;;
69197;SDS011;56311;50.298;8.514;2023-02-28T10:39:33;6.00;;;2.75;;
69197;SDS011;56311;50.298;8.514;2023-02-28T10:42:00;6.03;;;3.50;;
69197;SDS011;56311;50.298;8.514;2023-02-28T10:44:28;5.88;;;3.30;;
69197;SDS011;56311;50.298;8.514;2023-02-28T10:46:54;6.35;;;3.80;;
69197;SDS011;56311;50.298;8.514;2023-02-28T10:49:23;7.00;;;3.60;;
69197;SDS011;56311;50.298;8.514;2023-02-28T10:51:51;6.75;;;3.72;;
69197;SDS011;56311;50.298;8.514;2023-02-28T10:54:19;8.00;;;3.85;;
69197;SDS011;56311;50.298;8.514;2023-02-28T10:56:56;7.55;;;3.63;;
69197;SDS011;56311;50.298;8.514;2023-02-28T10:59:32;8.55;;;4.00;;
69197;SDS011;56311;50.298;8.514;2023-02-28T11:01:59;6.35;;;3.65;;
69197;SDS011;56311;50.298;8.514;2023-02-28T11:04:32;6.38;;;3.85;;
69197;SDS011;56311;50.298;8.514;2023-02-28T11:06:59;5.70;;;3.42;;
69197;SDS011;56311;50.298;8.514;2023-02-28T11:09:27;7.60;;;3.90;;
69197;SDS011;56311;50.298;8.514;2023-02-28T11:11:55;7.20;;;3.70;;
69197;SDS011;56311;50.298;8.514;2023-02-28T11:14:23;5.47;;;3.25;;
69197;SDS011;56311;50.298;8.514;2023-02-28T11:16:52;7.65;;;3.95;;
69197;SDS011;56311;50.298;8.514;2023-02-28T11:19:23;6.47;;;3.65;;
69197;SDS011;56311;50.298;8.514;2023-02-28T11:21:52;5.70;;;3.28;;
69197;SDS011;56311;50.298;8.514;2023-02-28T11:24:21;7.00;;;3.58;;
69197;SDS011;56311;50.298;8.514;2023-02-28T11:26:49;5.88;;;3.25;;
69197;SDS011;56311;50.298;8.514;2023-02-28T11:29:17;7.32;;;3.67;;
69197;SDS011;56311;50.298;8.514;2023-02-28T11:34:31;13.57;;;4.18;;
69197;SDS011;56311;50.298;8.514;2023-02-28T11:36:58;6.20;;;3.78;;
69197;SDS011;56311;50.298;8.514;2023-02-28T11:39:26;6.60;;;3.80;;
69197;SDS011;56311;50.298;8.514;2023-02-28T11:41:56;5.95;;;3.55;;
69197;SDS011;56311;50.298;8.514;2023-02-28T11:44:31;7.10;;;3.92;;
69197;SDS011;56311;50.298;8.514;2023-02-28T11:47:00;7.13;;;3.72;;
69197;SDS011;56311;50.298;8.514;2023-02-28T11:49:32;5.65;;;3.28;;
69197;SDS011;56311;50.298;8.514;2023-02-28T11:52:02;6.50;;;3.90;;
69197;SDS011;56311;50.298;8.514;2023-02-28T11:54:50;10.27;;;3.67;;
69197;SDS011;56311;50.298;8.514;2023-02-28T11:57:26;9.05;;;3.85;;
69197;SDS011;56311;50.298;8.514;2023-02-28T11:59:57;7.65;;;3.70;;
69197;SDS011;56311;50.298;8.514;2023-02-28T12:02:28;6.50;;;3.75;;
69197;SDS011;56311;50.298;8.514;2023-02-28T12:05:01;7.05;;;3.97;;
69197;SDS011;56311;50.298;8.514;2023-02-28T12:07:36;5.85;;;3.75;;
69197;SDS011;56311;50.298;8.514;2023-02-28T12:10:05;6.38;;;3.70;;
69197;SDS011;56311;50.298;8.514;2023-02-28T12:12:37;8.77;;;4.28;;
69197;SDS011;56311;50.298;8.514;2023-02-28T12:18:05;6.43;;;4.28;;
69197;SDS011;56311;50.298;8.514;2023-02-28T12:20:38;7.90;;;4.80;;
69197;SDS011;56311;50.298;8.514;2023-02-28T12:23:14;9.38;;;4.80;;
69197;SDS011;56311;50.298;8.514;2023-02-28T12:28:37;6.80;;;4.10;;
69197;SDS011;56311;50.298;8.514;2023-02-28T12:31:09;7.00;;;4.25;;
69197;SDS011;56311;50.298;8.514;2023-02-28T12:33:39;8.50;;;4.18;;
69197;SDS011;56311;50.298;8.514;2023-02-28T12:36:09;6.75;;;4.05;;
69197;SDS011;56311;50.298;8.514;2023-02-28T12:38:38;6.80;;;4.10;;
69197;SDS011;56311;50.298;8.514;2023-02-28T12:41:09;6.75;;;3.85;;
69197;SDS011;56311;50.298;8.514;2023-02-28T12:43:40;6.75;;;4.03;;
69197;SDS011;56311;50.298;8.514;2023-02-28T12:46:09;7.22;;;4.40;;
69197;SDS011;56311;50.298;8.514;2023-02-28T12:48:41;8.15;;;4.40;;
69197;SDS011;56311;50.298;8.514;2023-02-28T12:51:10;8.48;;;4.55;;
69197;SDS011;56311;50.298;8.514;2023-02-28T12:53:41;7.32;;;4.20;;
69197;SDS011;56311;50.298;8.514;2023-02-28T12:56:12;7.32;;;4.30;;
69197;SDS011;56311;50.298;8.514;2023-02-28T12:58:41;7.07;;;3.97;;
69197;SDS011;56311;50.298;8.514;2023-02-28T13:01:22;7.75;;;4.32;;
69197;SDS011;56311;50.298;8.514;2023-02-28T13:04:01;7.07;;;4.38;;
69197;SDS011;56311;50.298;8.514;2023-02-28T13:06:37;10.18;;;4.30;;
69197;SDS011;56311;50.298;8.514;2023-02-28T13:09:08;8.30;;;4.23;;
69197;SDS011;56311;50.298;8.514;2023-02-28T13:11:38;7.13;;;4.13;;
69197;SDS011;56311;50.298;8.514;2023-02-28T13:14:06;7.38;;;3.97;;
69197;SDS011;56311;50.298;8.514;2023-02-28T13:16:56;6.78;;;4.20;;
69197;SDS011;56311;50.298;8.514;2023-02-28T13:19:24;6.68;;;3.67;;
69197;SDS011;56311;50.298;8.514;2023-02-28T13:21:53;6.57;;;4.10;;
69197;SDS011;56311;50.298;8.514;2023-02-28T13:24:37;7.18;;;3.97;;
69197;SDS011;56311;50.298;8.514;2023-02-28T13:29:31;7.05;;;4.07;;
69197;SDS011;56311;50.298;8.514;2023-02-28T13:32:18;6.82;;;3.85;;
69197;SDS011;56311;50.298;8.514;2023-02-28T13:34:47;6.75;;;3.72;;
69197;SDS011;56311;50.298;8.514;2023-02-28T13:37:35;6.75;;;4.07;;
69197;SDS011;56311;50.298;8.514;2023-02-28T13:42:49;8.02;;;4.20;;
69197;SDS011;56311;50.298;8.514;2023-02-28T13:45:20;6.22;;;3.80;;
69197;SDS011;56311;50.298;8.514;2023-02-28T13:47:51;7.65;;;4.20;;
69197;SDS011;56311;50.298;8.514;2023-02-28T13:50:20;6.32;;;3.85;;
69197;SDS011;56311;50.298;8.514;2023-02-28T13:52:51;6.22;;;3.90;;
69197;SDS011;56311;50.298;8.514;2023-02-28T13:55:27;11.02;;;4.35;;
69197;SDS011;56311;50.298;8.514;2023-02-28T13:57:58;10.20;;;4.22;;
69197;SDS011;56311;50.298;8.514;2023-02-28T14:00:39;8.50;;;4.05;;
69197;SDS011;56311;50.298;8.514;2023-02-28T14:03:11;5.72;;;3.50;;
69197;SDS011;56311;50.298;8.514;2023-02-28T14:05:41;6.28;;;3.55;;
69197;SDS011;56311;50.298;8.514;2023-02-28T14:08:12;7.65;;;3.83;;
69197;SDS011;56311;50.298;8.514;2023-02-28T14:10:42;7.00;;;3.78;;
69197;SDS011;56311;50.298;8.514;2023-02-28T14:13:14;8.10;;;4.32;;
69197;SDS011;56311;50.298;8.514;2023-02-28T14:16:00;6.50;;;3.83;;
69197;SDS011;56311;50.298;8.514;2023-02-28T14:18:28;5.97;;;3.67;;
69197;SDS011;56311;50.298;8.514;2023-02-28T14:20:57;6.90;;;3.72;;
69197;SDS011;56311;50.298;8.514;2023-02-28T14:23:31;7.05;;;3.50;;
69197;SDS011;56311;50.298;8.514;2023-02-28T14:26:01;7.13;;;3.92;;
69197;SDS011;56311;50.298;8.514;2023-02-28T14:28:39;7.65;;;4.25;;
69197;SDS011;56311;50.298;8.514;2023-02-28T14:31:10;6.65;;;4.10;;
69197;SDS011;56311;50.298;8.514;2023-02-28T14:33:50;7.20;;;3.80;;
69197;SDS011;56311;50.298;8.514;2023-02-28T14:36:25;7.40;;;4.20;;
69197;SDS011;56311;50.298;8.514;2023-02-28T14:38:55;6.95;;;4.03;;
69197;SDS011;56311;50.298;8.514;2023-02-28T14:41:23;8.25;;;3.90;;
69197;SDS011;56311;50.298;8.514;2023-02-28T14:43:51;7.80;;;3.95;;
69197;SDS011;56311;50.298;8.514;2023-02-28T14:46:18;7.03;;;4.25;;
69197;SDS011;56311;50.298;8.514;2023-02-28T14:48:46;5.85;;;3.70;;
69197;SDS011;56311;50.298;8.514;2023-02-28T14:51:13;7.22;;;3.90;;
69197;SDS011;56311;50.298;8.514;2023-02-28T14:53:44;7.57;;;4.20;;
69197;SDS011;56311;50.298;8.514;2023-02-28T14:56:19;7.03;;;4.03;;
69197;SDS011;56311;50.298;8.514;2023-02-28T15:01:12;8.18;;;4.38;;
69197;SDS011;56311;50.298;8.514;2023-02-28T15:03:45;7.07;;;4.07;;
69197;SDS011;56311;50.298;8.514;2023-02-28T15:06:14;8.98;;;4.18;;
69197;SDS011;56311;50.298;8.514;2023-02-28T15:08:41;8.07;;;5.13;;
69197;SDS011;56311;50.298;8.514;2023-02-28T15:11:08;8.52;;;4.45;;
69197;SDS011;56311;50.298;8.514;2023-02-28T15:13:40;7.15;;;4.28;;
69197;SDS011;56311;50.298;8.514;2023-02-28T15:16:08;8.15;;;4.72;;
69197;SDS011;56311;50.298;8.514;2023-02-28T15:18:40;8.63;;;4.38;;
69197;SDS011;56311;50.298;8.514;2023-02-28T15:21:11;8.98;;;4.40;;
69197;SDS011;56311;50.298;8.514;2023-02-28T15:23:38;7.07;;;3.88;;
69197;SDS011;56311;50.298;8.514;2023-02-28T15:26:05;6.32;;;4.07;;
69197;SDS011;56311;50.298;8.514;2023-02-28T15:28:32;9.02;;;4.20;;